Aviation Digital Data Service (ADDS)

Output produced by METARs form (1706 UTC 24 April 2017)
found at http://www.aviationweather.gov/adds/metars/
 
FTTC 241500Z 10004KT 8000 NSC 41/07 Q1008
FTTY 241500Z 04010KT CAVOK 38/01 Q////
FTTD 241500Z 22006KT 9999 SCT040TCU 37/20 Q1007
FTTJ 241600Z 07010KT 050V110 4500 HZ NSC 43/06 Q1004 NOSIG
TAF COR FTTJ 241100Z 2412/2518 10012KT 3000 DU NSC 
     PROB30 
     TEMPO 2415/2417 VRB14G25KT TS DS 
     BECMG 2418/2420 VRB04KT 
     BECMG 2507/2509 08010KT
       
FTTA 241600Z 26004KT 9999 TS BKN010 FEW050CB 25/21 Q1010